Time;durP1;ratioP1;P1;durP2;ratioP2;P2;SDS_P1;SDS_P2;PMS_P1;PMS_P2;Temp;Humidity;BMP_temperature;BMP_pressure;BME280_temperature;BME280_humidity;BME280_pressure;Samples;Min_cycle;Max_cycle;Signal;HPM_P1;HPM_P2
2022/08/05 00:02:14;;;;;;;12.43;5.32;;;;;;;20.54;78.01;99357.75;5012211;28;20644;-68
2022/08/05 00:04:41;;;;;;;11.27;5.63;;;;;;;20.50;78.27;99358.22;5011191;28;20525;-69
2022/08/05 00:07:07;;;;;;;11.32;5.13;;;;;;;20.43;79.20;99360.66;5028911;28;20053;-70
2022/08/05 00:09:36;;;;;;;7.85;5.60;;;;;;;20.34;77.22;99357.03;5031786;28;20520;-68
2022/08/05 00:12:02;;;;;;;8.48;5.57;;;;;;;20.34;77.44;99358.88;5031389;28;20068;-68
2022/08/05 00:14:29;;;;;;;10.45;5.70;;;;;;;20.32;76.87;99348.28;5031136;28;20053;-68
2022/08/05 00:17:02;;;;;;;6.60;4.70;;;;;;;20.25;76.14;99349.88;5031474;28;20045;-67
2022/08/05 00:19:29;;;;;;;8.88;6.15;;;;;;;20.25;76.22;99351.72;5031673;28;20045;-67
2022/08/05 00:21:55;;;;;;;6.38;4.20;;;;;;;20.26;75.89;99348.91;5020938;28;20057;-68
2022/08/05 00:24:22;;;;;;;19.10;5.85;;;;;;;20.26;75.89;99346.22;5031108;28;20056;-68
2022/08/05 00:26:49;;;;;;;11.75;5.10;;;;;;;20.27;75.99;99345.22;5029925;28;20136;-68
2022/08/05 00:29:15;;;;;;;8.18;3.90;;;;;;;20.26;75.54;99358.78;5031821;28;20059;-69
2022/08/05 00:31:42;;;;;;;10.65;5.35;;;;;;;20.25;75.63;99365.94;5031697;28;20160;-70
2022/08/05 00:34:09;;;;;;;6.93;5.47;;;;;;;20.24;75.99;99376.81;5030797;28;20045;-69
2022/08/05 00:36:36;;;;;;;10.32;6.28;;;;;;;20.19;75.92;99377.25;5031370;28;20500;-68
2022/08/05 00:39:03;;;;;;;8.65;4.88;;;;;;;20.19;76.09;99368.38;5031595;28;20061;-68
2022/08/05 00:41:31;;;;;;;10.00;5.20;;;;;;;20.18;75.51;99362.16;5031349;28;20053;-69
2022/08/05 00:43:58;;;;;;;6.80;4.40;;;;;;;20.16;75.37;99362.34;5030755;28;20099;-68
2022/08/05 00:46:25;;;;;;;9.68;5.53;;;;;;;20.16;75.53;99370.38;5030975;28;20045;-68
2022/08/05 00:48:52;;;;;;;13.35;5.32;;;;;;;20.11;75.34;99369.13;5030242;28;20054;-68
2022/08/05 00:51:21;;;;;;;7.60;4.35;;;;;;;20.06;75.25;99360.66;5013543;28;20058;-69
2022/08/05 00:53:48;;;;;;;7.75;4.43;;;;;;;19.96;75.45;99363.41;5011485;28;20045;-68
2022/08/05 00:56:16;;;;;;;14.77;5.78;;;;;;;19.94;75.46;99354.69;5010449;28;20046;-69
2022/08/05 00:58:43;;;;;;;7.43;4.82;;;;;;;19.80;76.11;99345.28;5011265;28;20057;-68
2022/08/05 01:01:10;;;;;;;6.47;4.88;;;;;;;19.80;76.55;99352.47;5011093;28;20042;-69
2022/08/05 01:03:37;;;;;;;10.02;4.70;;;;;;;19.72;76.62;99343.31;5011322;28;20046;-68
2022/08/05 01:06:04;;;;;;;8.55;5.13;;;;;;;19.73;77.06;99354.88;5010485;28;20061;-68
2022/08/05 01:08:32;;;;;;;8.75;5.47;;;;;;;19.71;77.21;99365.72;5011129;28;20050;-68
2022/08/05 01:11:02;;;;;;;7.90;5.32;;;;;;;19.66;76.90;99377.78;5010760;28;20136;-69
2022/08/05 01:13:36;;;;;;;9.60;6.50;;;;;;;19.60;77.34;99384.56;5010959;28;20045;-68
2022/08/05 01:16:06;;;;;;;8.95;5.53;;;;;;;19.56;77.97;99387.66;5010448;28;20049;-68
2022/08/05 01:18:37;;;;;;;8.20;5.55;;;;;;;19.56;77.91;99407.22;5010760;28;20383;-67
2022/08/05 01:21:28;;;;;;;13.98;5.68;;;;;;;19.56;78.05;99406.38;5013893;28;20044;-68
2022/08/05 01:24:08;;;;;;;8.23;5.38;;;;;;;19.56;78.58;99407.22;5028827;28;20057;-69
2022/08/05 01:26:44;;;;;;;9.80;5.22;;;;;;;19.61;78.37;99407.63;5030572;28;20125;-67
2022/08/05 01:29:20;;;;;;;8.27;4.47;;;;;;;19.69;78.50;99428.34;5030340;28;20657;-67
2022/08/05 01:31:51;;;;;;;10.35;6.15;;;;;;;19.76;78.02;99453.53;5030783;28;20600;-68
2022/08/05 01:34:22;;;;;;;13.57;5.95;;;;;;;19.79;77.89;99488.03;5029843;28;20091;-68
2022/08/05 01:36:53;;;;;;;13.57;6.45;;;;;;;19.79;78.28;99506.78;5030360;28;20048;-67
2022/08/05 01:39:22;;;;;;;9.10;6.63;;;;;;;19.77;77.98;99527.47;5030376;28;20056;-66
2022/08/05 01:41:51;;;;;;;12.65;6.95;;;;;;;19.72;78.52;99543.09;5030092;28;20049;-67
2022/08/05 01:44:20;;;;;;;9.75;6.80;;;;;;;19.70;78.72;99555.75;5029607;28;20142;-67
2022/08/05 01:46:48;;;;;;;12.38;7.30;;;;;;;19.64;78.97;99538.41;5030324;28;20132;-69
2022/08/05 01:49:18;;;;;;;15.38;8.50;;;;;;;19.62;79.07;99527.00;5030222;28;20073;-67
2022/08/05 01:51:45;;;;;;;14.88;10.18;;;;;;;19.57;80.00;99533.75;5030393;28;20140;-68
2022/08/05 01:54:15;;;;;;;14.00;10.98;;;;;;;19.47;82.17;99560.50;5013548;28;20056;-68
2022/08/05 01:56:43;;;;;;;17.83;11.77;;;;;;;19.34;83.31;99591.97;5010202;28;20058;-69
2022/08/05 01:59:14;;;;;;;16.73;13.75;;;;;;;19.17;85.27;99613.00;5010264;28;20054;-68
2022/08/05 02:01:46;;;;;;;16.45;13.45;;;;;;;19.03;86.37;99605.38;5009943;28;20525;-68
2022/08/05 02:04:16;;;;;;;28.33;17.75;;;;;;;18.97;88.89;99536.44;5013521;28;20497;-68
2022/08/05 02:06:43;;;;;;;25.80;17.92;;;;;;;18.71;90.41;99439.88;5029875;28;20049;-68
2022/08/05 02:09:09;;;;;;;21.75;16.98;;;;;;;18.60;93.54;99425.63;5029917;28;20136;-68
2022/08/05 02:11:43;;;;;;;19.05;16.38;;;;;;;18.52;93.94;99401.47;5029369;28;20049;-68
2022/08/05 02:14:12;;;;;;;17.77;15.35;;;;;;;18.41;95.06;99310.78;5028600;28;20049;-68
2022/08/05 02:16:45;;;;;;;15.27;12.98;;;;;;;18.27;95.59;99348.56;5029601;28;20041;-68
2022/08/05 02:19:18;;;;;;;13.10;11.38;;;;;;;18.36;97.26;99409.13;5029254;28;20063;-69
2022/08/05 02:21:52;;;;;;;12.70;10.60;;;;;;;18.41;96.20;99401.53;5029458;28;20045;-67
2022/08/05 02:24:22;;;;;;;14.30;12.80;;;;;;;18.43;95.30;99397.78;5028938;28;20055;-68
2022/08/05 02:26:52;;;;;;;13.27;11.43;;;;;;;18.34;94.84;99408.44;5029217;28;20050;-69
2022/08/05 02:29:23;;;;;;;12.80;11.30;;;;;;;18.35;95.69;99429.63;5029250;28;20493;-68
2022/08/05 02:31:56;;;;;;;11.45;10.35;;;;;;;18.39;95.14;99427.56;5029260;28;20520;-69
2022/08/05 02:34:24;;;;;;;10.02;9.05;;;;;;;18.40;95.41;99431.91;5028771;28;20045;-69
2022/08/05 02:36:55;;;;;;;14.02;11.40;;;;;;;18.45;95.47;99419.00;5032784;28;20046;-68
2022/08/05 02:39:23;;;;;;;11.32;10.23;;;;;;;18.45;94.99;99425.16;5034084;28;20072;-68
2022/08/05 02:41:52;;;;;;;10.80;9.75;;;;;;;18.45;95.11;99419.00;5033282;28;20056;-69
2022/08/05 02:44:21;;;;;;;10.85;9.75;;;;;;;18.48;94.82;99431.22;5032820;28;20057;-68
2022/08/05 02:46:49;;;;;;;13.18;10.85;;;;;;;18.48;95.33;99441.91;5033292;28;20088;-69
2022/08/05 02:49:17;;;;;;;15.85;12.63;;;;;;;18.46;95.05;99442.06;5033378;28;20046;-69
2022/08/05 02:51:45;;;;;;;11.02;9.32;;;;;;;18.45;95.52;99459.88;5033063;28;20539;-68
2022/08/05 02:54:13;;;;;;;11.02;9.63;;;;;;;18.51;95.78;99466.53;5032749;28;20424;-68
2022/08/05 02:56:41;;;;;;;9.48;8.50;;;;;;;18.57;95.52;99483.81;5029869;28;20071;-68
2022/08/05 02:59:11;;;;;;;8.82;7.82;;;;;;;18.61;95.94;99477.25;5033224;28;20761;-68
2022/08/05 03:01:40;;;;;;;11.02;9.38;;;;;;;18.64;95.58;99477.81;5033050;28;20629;-69
2022/08/05 03:04:10;;;;;;;11.27;10.00;;;;;;;18.65;94.91;99460.78;5032377;28;20452;-69
2022/08/05 03:06:40;;;;;;;8.73;7.93;;;;;;;18.63;94.56;99454.75;5032952;28;20046;-68
2022/08/05 03:09:07;;;;;;;9.77;8.05;;;;;;;18.68;95.48;99465.03;5033429;28;20065;-69
2022/08/05 03:11:34;;;;;;;8.85;8.05;;;;;;;18.72;95.76;99477.13;5032940;28;20045;-69
2022/08/05 03:14:00;;;;;;;10.65;9.55;;;;;;;18.79;95.31;99469.47;5031986;28;20048;-68
2022/08/05 03:16:27;;;;;;;10.73;9.63;;;;;;;18.82;94.73;99462.00;5032538;28;20077;-70
2022/08/05 03:18:53;;;;;;;8.45;7.65;;;;;;;18.83;94.37;99447.69;5033243;28;20053;-69
2022/08/05 03:21:20;;;;;;;12.32;11.07;;;;;;;18.84;93.38;99435.16;5032879;28;20054;-68
2022/08/05 03:23:48;;;;;;;14.93;13.32;;;;;;;18.83;94.41;99431.66;5033021;28;20050;-68
2022/08/05 03:26:15;;;;;;;10.15;8.82;;;;;;;18.84;94.49;99421.81;5032263;28;20049;-68
2022/08/05 03:28:41;;;;;;;11.18;10.02;;;;;;;18.85;94.58;99405.66;5032485;28;20049;-70
2022/08/05 03:31:09;;;;;;;14.02;12.52;;;;;;;18.85;94.97;99394.97;5032364;28;20148;-68
2022/08/05 03:33:36;;;;;;;11.82;10.70;;;;;;;18.83;nan;99375.56;5032833;28;20128;-68
2022/08/05 03:36:03;;;;;;;15.70;12.85;;;;;;;18.84;96.09;99360.38;5032146;28;20055;-68
2022/08/05 03:38:30;;;;;;;10.50;9.25;;;;;;;18.82;94.38;99343.66;5032732;28;20053;-68
2022/08/05 03:40:58;;;;;;;15.77;12.27;;;;;;;18.83;94.73;99334.66;5032251;28;20490;-68
2022/08/05 03:43:24;;;;;;;12.85;11.65;;;;;;;18.83;94.72;99338.19;5032148;28;20056;-69
2022/08/05 03:45:52;;;;;;;14.07;11.57;;;;;;;18.82;93.32;99335.63;5031537;28;20049;-68
2022/08/05 03:48:20;;;;;;;10.98;9.88;;;;;;;18.72;93.00;99350.78;5030997;28;20045;-69
2022/08/05 03:50:52;;;;;;;15.02;9.80;;;;;;;18.79;93.86;99381.31;5032412;28;20045;-68
2022/08/05 03:53:27;;;;;;;10.80;9.77;;;;;;;18.87;93.60;99365.44;5029063;28;20053;-69
2022/08/05 03:56:00;;;;;;;12.35;11.13;;;;;;;18.91;94.15;99360.69;5031736;28;20076;-68
2022/08/05 03:58:31;;;;;;;11.35;9.57;;;;;;;18.88;92.95;99381.34;5032175;28;20517;-68
2022/08/05 04:01:01;;;;;;;11.23;10.02;;;;;;;18.91;94.20;99382.06;5032417;28;20539;-68
2022/08/05 04:03:34;;;;;;;15.65;12.50;;;;;;;18.90;94.73;99365.16;5032522;28;20111;-68
2022/08/05 04:06:02;;;;;;;12.75;11.45;;;;;;;18.91;94.92;99379.38;5031827;28;20049;-68
2022/08/05 04:08:29;;;;;;;12.77;11.45;;;;;;;18.93;96.91;99383.59;5032363;28;20049;-68
2022/08/05 04:10:57;;;;;;;12.73;11.45;;;;;;;18.95;96.45;99381.63;5031538;28;20064;-69
2022/08/05 04:13:25;;;;;;;14.38;12.88;;;;;;;18.95;97.11;99391.44;5031487;28;20700;-68
2022/08/05 04:15:51;;;;;;;25.10;20.67;;;;;;;18.94;96.71;99385.28;5031462;28;20136;-69
2022/08/05 04:18:18;;;;;;;18.55;15.05;;;;;;;18.88;95.54;99399.19;5031843;28;20052;-69
2022/08/05 04:20:45;;;;;;;21.45;19.35;;;;;;;18.85;94.59;99402.13;5031196;28;20053;-69
2022/08/05 04:23:12;;;;;;;30.08;25.30;;;;;;;18.81;95.73;99396.22;5031292;28;20053;-68
2022/08/05 04:25:38;;;;;;;22.40;20.00;;;;;;;18.78;94.91;99387.63;5031214;28;20060;-69
2022/08/05 04:28:05;;;;;;;25.80;20.05;;;;;;;18.78;95.19;99395.63;5031406;28;20159;-68
2022/08/05 04:30:32;;;;;;;23.48;19.52;;;;;;;18.81;95.93;99409.59;5031410;28;20162;-69
2022/08/05 04:32:59;;;;;;;23.83;21.35;;;;;;;18.84;95.49;99417.31;5031127;28;20493;-67
2022/08/05 04:35:26;;;;;;;23.83;19.33;;;;;;;18.85;94.42;99411.00;5030563;28;20668;-68
2022/08/05 04:37:52;;;;;;;30.02;23.77;;;;;;;18.80;95.23;99404.38;5031150;28;20129;-68
2022/08/05 04:40:19;;;;;;;24.40;19.25;;;;;;;18.83;96.33;99401.44;5031407;28;20053;-68
2022/08/05 04:42:45;;;;;;;19.92;17.65;;;;;;;18.81;94.23;99409.59;5031158;28;20049;-68
2022/08/05 04:45:12;;;;;;;20.23;18.05;;;;;;;18.88;95.23;99418.72;5030560;28;20511;-68
2022/08/05 04:47:40;;;;;;;23.60;19.52;;;;;;;18.92;94.39;99424.63;5031090;28;20056;-67
2022/08/05 04:50:07;;;;;;;29.02;20.83;;;;;;;18.97;94.38;99426.91;5030951;28;20421;-66
2022/08/05 04:52:34;;;;;;;35.10;24.92;;;;;;;18.93;93.77;99423.66;5030644;28;20513;-67
2022/08/05 04:55:00;;;;;;;25.17;21.95;;;;;;;18.97;94.51;99425.06;5030527;28;20049;-67
2022/08/05 04:57:27;;;;;;;30.67;25.25;;;;;;;18.99;94.35;99423.09;5031063;28;20394;-67
2022/08/05 04:59:53;;;;;;;23.33;19.33;;;;;;;19.02;93.29;99428.16;5030903;28;20079;-67
2022/08/05 05:02:20;;;;;;;30.33;21.42;;;;;;;19.02;92.21;99430.00;5028247;28;20404;-68
2022/08/05 05:04:48;;;;;;;22.75;20.10;;;;;;;19.00;92.47;99435.50;5030207;28;20051;-68
2022/08/05 05:07:15;;;;;;;23.48;20.05;;;;;;;19.03;92.32;99429.88;5030896;28;20052;-69
2022/08/05 05:09:41;;;;;;;21.25;19.08;;;;;;;19.07;92.50;99436.63;5030915;28;20050;-69
2022/08/05 05:12:08;;;;;;;26.15;23.08;;;;;;;19.08;92.65;99438.31;5030790;28;20057;-68
2022/08/05 05:14:35;;;;;;;31.25;26.02;;;;;;;19.07;92.12;99436.63;5029884;28;20060;-68
2022/08/05 05:17:02;;;;;;;26.67;23.75;;;;;;;18.94;90.86;99424.50;5030140;28;20044;-68
2022/08/05 05:19:28;;;;;;;44.78;31.65;;;;;;;18.89;91.52;99435.59;5030138;28;20064;-68
2022/08/05 05:21:56;;;;;;;35.72;28.95;;;;;;;18.83;91.97;99438.84;5030388;28;20056;-68
2022/08/05 05:24:23;;;;;;;43.72;32.22;;;;;;;18.84;93.44;99443.19;5029371;28;20050;-68
2022/08/05 05:26:49;;;;;;;40.90;29.98;;;;;;;18.83;94.43;99449.53;5027185;28;20050;-68
2022/08/05 05:29:16;;;;;;;30.05;26.13;;;;;;;18.87;94.82;99450.91;5035475;28;20081;-68
2022/08/05 05:31:43;;;;;;;36.95;28.27;;;;;;;18.93;94.17;99463.75;5032803;28;20049;-68
2022/08/05 05:34:09;;;;;;;41.78;27.75;;;;;;;18.95;93.40;99459.09;5029318;28;20083;-68
2022/08/05 05:36:36;;;;;;;49.45;35.10;;;;;;;18.91;93.12;99446.16;5030456;28;20045;-68
2022/08/05 05:39:04;;;;;;;47.25;29.73;;;;;;;18.84;93.75;99445.84;5026481;28;20051;-68
2022/08/05 05:41:30;;;;;;;43.45;33.65;;;;;;;18.81;94.58;99448.81;5030280;28;20059;-68
2022/08/05 05:43:57;;;;;;;40.33;29.27;;;;;;;18.82;93.61;99453.16;5029428;28;20055;-68
2022/08/05 05:46:23;;;;;;;37.08;29.83;;;;;;;18.83;93.68;99450.34;5030057;28;20053;-68
2022/08/05 05:48:50;;;;;;;59.45;36.63;;;;;;;18.86;93.49;99447.41;5029711;28;20058;-67
2022/08/05 05:51:21;;;;;;;56.38;36.90;;;;;;;18.86;95.39;99450.06;5029384;28;20617;-68
2022/08/05 05:53:47;;;;;;;54.15;34.83;;;;;;;18.85;94.39;99452.88;5029703;28;20492;-67
2022/08/05 05:56:15;;;;;;;63.13;38.90;;;;;;;18.85;93.51;99452.88;5029852;28;20053;-67
2022/08/05 05:58:42;;;;;;;50.65;34.92;;;;;;;18.87;94.67;99465.09;5021732;28;20060;-68
2022/08/05 06:01:08;;;;;;;53.13;35.90;;;;;;;18.89;93.60;99462.31;5009896;28;20053;-67
2022/08/05 06:03:36;;;;;;;45.80;33.75;;;;;;;18.90;93.04;99458.66;5023974;28;20512;-67
2022/08/05 06:06:05;;;;;;;74.88;43.88;;;;;;;18.90;93.82;99469.31;5021442;28;20053;-69
2022/08/05 06:08:32;;;;;;;65.95;42.53;;;;;;;18.90;94.35;99466.66;5029926;28;20046;-67
2022/08/05 06:10:58;;;;;;;45.42;32.55;;;;;;;18.87;94.30;99466.94;5029214;28;20056;-67
2022/08/05 06:13:26;;;;;;;50.45;34.40;;;;;;;18.92;94.07;99470.03;5029175;28;20057;-67
2022/08/05 06:15:53;;;;;;;80.70;46.10;;;;;;;18.91;93.97;99475.53;5028889;28;20049;-67
2022/08/05 06:18:19;;;;;;;38.65;30.75;;;;;;;18.90;95.91;99474.66;5029308;28;20503;-69
2022/08/05 06:20:46;;;;;;;46.50;32.58;;;;;;;18.96;95.38;99467.97;5029209;28;20057;-69
2022/08/05 06:23:12;;;;;;;62.63;38.15;;;;;;;18.95;94.63;99475.13;5029132;28;20045;-68
2022/08/05 06:25:39;;;;;;;61.80;40.53;;;;;;;18.96;96.01;99474.16;5028790;28;20140;-69
2022/08/05 06:28:06;;;;;;;52.03;34.97;;;;;;;19.00;95.11;99480.03;5029469;28;20045;-67
2022/08/05 06:30:33;;;;;;;53.38;34.42;;;;;;;19.02;95.54;99478.91;5029352;28;20071;-68
2022/08/05 06:33:00;;;;;;;45.53;31.77;;;;;;;19.05;94.77;99485.81;5029253;28;20532;-69
2022/08/05 06:35:27;;;;;;;39.42;29.20;;;;;;;19.06;94.77;99476.84;5029003;28;20101;-68
2022/08/05 06:37:53;;;;;;;54.63;34.88;;;;;;;19.08;94.93;99494.41;5029495;28;20444;-69
2022/08/05 06:40:20;;;;;;;50.22;31.85;;;;;;;19.13;94.46;99495.84;5029284;28;20057;-69
2022/08/05 06:42:46;;;;;;;44.72;29.15;;;;;;;19.08;93.70;99494.41;5029173;28;20515;-67
2022/08/05 06:45:13;;;;;;;37.30;27.02;;;;;;;19.09;94.15;99503.28;5028577;28;20527;-68
2022/08/05 06:47:41;;;;;;;36.35;25.98;;;;;;;19.11;95.36;99506.66;5029208;28;20046;-69
2022/08/05 06:50:09;;;;;;;54.80;35.60;;;;;;;19.00;95.14;99506.75;5029377;28;20050;-68
2022/08/05 06:52:35;;;;;;;54.78;35.75;;;;;;;18.98;96.43;99514.09;5029357;28;20124;-68
2022/08/05 06:55:02;;;;;;;31.23;23.85;;;;;;;19.00;97.73;99518.31;5028482;28;20059;-69
2022/08/05 06:57:28;;;;;;;39.45;27.75;;;;;;;19.01;98.58;99525.34;5028971;28;20050;-67
2022/08/05 06:59:55;;;;;;;37.35;24.88;;;;;;;19.02;98.80;99519.00;5028717;28;20049;-68
2022/08/05 07:02:21;;;;;;;42.13;29.35;;;;;;;19.05;99.32;99525.91;5029058;28;20056;-68
2022/08/05 07:04:49;;;;;;;49.22;31.90;;;;;;;19.05;98.23;99531.25;5028326;28;20053;-68
2022/08/05 07:07:17;;;;;;;35.00;25.38;;;;;;;19.07;97.92;99522.13;5029366;28;20041;-69
2022/08/05 07:09:43;;;;;;;26.35;20.77;;;;;;;19.05;97.51;99534.78;5029098;28;20132;-67
2022/08/05 07:16:47;;;;;;;32.65;22.73;;;;;;;19.01;97.63;99544.03;5012771;28;20057;-68
2022/08/05 07:17:41;;;;;;;41.63;26.40;;;;;;;19.06;99.50;99546.31;5010200;28;20061;-67
2022/08/05 07:20:10;;;;;;;29.02;20.00;;;;;;;19.09;98.83;99544.19;5025142;28;20059;-68
2022/08/05 07:22:37;;;;;;;34.67;25.88;;;;;;;19.12;98.73;99551.09;5031706;28;20042;-66
2022/08/05 07:25:04;;;;;;;23.80;18.88;;;;;;;19.16;97.97;99552.53;5032418;28;20049;-67
2022/08/05 07:27:31;;;;;;;27.48;20.20;;;;;;;19.15;96.31;99564.22;5032775;28;20063;-67
2022/08/05 07:29:58;;;;;;;22.10;17.05;;;;;;;19.16;96.04;99563.22;5032399;28;20054;-61
2022/08/05 07:32:24;;;;;;;21.77;17.42;;;;;;;19.15;97.03;99561.53;5032439;28;20072;-50
2022/08/05 07:34:52;;;;;;;20.05;14.57;;;;;;;19.30;91.68;99565.50;5031794;28;20046;-49
2022/08/05 07:37:20;;;;;;;17.65;15.95;;;;;;;19.39;88.79;99577.19;5032790;28;20080;-54
2022/08/05 07:39:47;;;;;;;18.05;15.73;;;;;;;19.43;87.26;99578.63;5032711;28;20073;-51
2022/08/05 07:42:14;;;;;;;17.90;16.05;;;;;;;19.41;87.08;99587.75;5024298;28;20049;-52
2022/08/05 07:44:40;;;;;;;19.20;15.77;;;;;;;19.39;86.53;99587.03;5031305;28;20049;-46
2022/08/05 07:47:07;;;;;;;18.70;16.73;;;;;;;19.15;88.12;99603.41;5032292;28;20064;-51
2022/08/05 07:49:33;;;;;;;14.90;13.38;;;;;;;18.91;89.72;99609.09;5032101;28;20421;-56
2022/08/05 07:52:00;;;;;;;14.15;11.95;;;;;;;18.73;92.28;99608.81;5032047;28;20490;-55
2022/08/05 07:54:28;;;;;;;17.25;13.85;;;;;;;18.63;90.52;99614.97;5031195;28;20057;-55
2022/08/05 07:56:54;;;;;;;15.82;12.32;;;;;;;18.46;91.31;99618.22;5031582;28;20504;-54
2022/08/05 07:59:21;;;;;;;13.48;12.00;;;;;;;18.40;91.38;99618.75;5018050;28;20135;-47
2022/08/05 08:01:47;;;;;;;12.88;10.10;;;;;;;18.42;90.58;99625.63;5014039;28;20054;-53
2022/08/05 08:04:14;;;;;;;13.73;10.30;;;;;;;18.46;91.52;99628.91;5011394;28;20058;-53
2022/08/05 08:06:40;;;;;;;11.75;10.02;;;;;;;18.40;90.71;99629.41;5012366;28;20085;-45
2022/08/05 08:09:07;;;;;;;11.60;8.90;;;;;;;18.38;90.89;99636.69;5012186;28;20046;-50
2022/08/05 08:11:35;;;;;;;9.93;8.93;;;;;;;18.33;91.68;99636.25;5012135;28;20050;-50
2022/08/05 08:14:02;;;;;;;10.68;7.65;;;;;;;18.33;90.16;99642.41;5011119;28;20402;-48
2022/08/05 08:16:28;;;;;;;13.48;9.98;;;;;;;18.29;88.70;99648.16;5011569;28;20095;-52
2022/08/05 08:18:55;;;;;;;13.40;9.80;;;;;;;18.22;89.88;99643.31;5018405;28;20041;-51
2022/08/05 08:21:21;;;;;;;13.88;9.30;;;;;;;18.26;89.39;99653.75;5025008;28;20054;-50
2022/08/05 08:23:48;;;;;;;14.68;11.60;;;;;;;18.24;89.12;99653.88;5027234;28;20437;-49
2022/08/05 08:26:14;;;;;;;14.20;10.88;;;;;;;18.21;88.41;99657.66;5031020;28;20398;-56
2022/08/05 08:28:42;;;;;;;12.98;10.15;;;;;;;18.16;90.67;99659.88;5031880;28;20045;-56
2022/08/05 08:31:10;;;;;;;17.95;10.48;;;;;;;18.10;88.85;99660.34;5031233;28;20472;-49
2022/08/05 08:33:36;;;;;;;12.18;10.80;;;;;;;18.13;89.38;99664.59;5031208;28;20049;-46
2022/08/05 08:36:03;;;;;;;11.23;9.90;;;;;;;18.11;90.45;99670.03;5030642;28;20144;-53
2022/08/05 08:38:30;;;;;;;15.55;12.13;;;;;;;18.08;87.77;99675.63;5031142;28;20049;-50
2022/08/05 08:40:57;;;;;;;13.98;9.95;;;;;;;18.01;89.80;99677.13;5031180;28;20059;-45
2022/08/05 08:43:25;;;;;;;18.15;11.60;;;;;;;18.00;90.08;99686.94;5031282;28;20079;-47
2022/08/05 08:45:54;;;;;;;12.75;10.15;;;;;;;17.93;90.21;99693.75;5030124;28;20049;-46
2022/08/05 08:48:22;;;;;;;17.83;13.13;;;;;;;17.91;88.58;99702.84;5031492;28;20096;-59
2022/08/05 08:50:49;;;;;;;15.05;10.27;;;;;;;17.95;88.87;99698.97;5030869;28;20055;-59
2022/08/05 08:53:17;;;;;;;11.85;10.65;;;;;;;17.94;89.00;99702.59;5031651;28;20042;-60
2022/08/05 08:55:44;;;;;;;15.27;12.60;;;;;;;17.90;89.50;99703.81;5034282;28;20594;-59
2022/08/05 08:58:11;;;;;;;13.38;9.77;;;;;;;17.75;90.91;99709.41;5035184;28;20132;-53
2022/08/05 09:00:40;;;;;;;16.98;13.82;;;;;;;17.72;91.66;99706.09;5032266;28;20057;-56
2022/08/05 09:03:10;;;;;;;12.48;9.80;;;;;;;17.72;93.08;99706.09;5019585;28;20050;-58
2022/08/05 09:05:36;;;;;;;11.65;10.00;;;;;;;17.76;90.67;99700.41;5010221;28;20141;-57
2022/08/05 09:08:03;;;;;;;11.50;9.88;;;;;;;17.75;92.25;99712.06;5010954;28;20046;-58
2022/08/05 09:10:30;;;;;;;10.68;8.63;;;;;;;17.81;92.38;99721.41;5010853;28;20045;-54
2022/08/05 09:12:57;;;;;;;10.13;7.53;;;;;;;17.78;92.19;99718.97;5010381;28;20052;-46
2022/08/05 09:15:24;;;;;;;8.85;7.93;;;;;;;17.86;90.00;99729.88;5010405;28;20136;-47
2022/08/05 09:17:51;;;;;;;12.40;9.45;;;;;;;17.89;91.09;99731.44;5010888;28;20072;-53
2022/08/05 09:20:19;;;;;;;12.10;7.78;;;;;;;17.88;89.81;99737.78;5010738;28;20056;-48
2022/08/05 09:23:20;;;;;;;10.00;7.65;;;;;;;17.91;89.33;99730.34;5017687;28;20048;-50
2022/08/05 09:25:49;;;;;;;8.77;6.28;;;;;;;18.00;88.19;99736.78;4968152;28;20157;-52
2022/08/05 09:28:17;;;;;;;11.20;7.28;;;;;;;18.08;86.83;99739.66;4969054;28;20082;-52
2022/08/05 09:30:54;;;;;;;9.38;6.93;;;;;;;18.13;86.91;99745.47;4997719;28;20416;-69
2022/08/05 09:33:21;;;;;;;12.85;8.25;;;;;;;17.91;86.22;99746.38;5030366;28;20049;-68
2022/08/05 09:36:00;;;;;;;9.30;7.03;;;;;;;17.86;87.58;99751.22;5029345;28;20103;-68
2022/08/05 09:38:27;;;;;;;10.35;7.97;;;;;;;17.84;87.28;99758.50;5030520;28;20244;-67
2022/08/05 09:41:01;;;;;;;14.73;9.07;;;;;;;17.91;88.50;99753.53;5030201;28;20049;-68
2022/08/05 09:43:30;;;;;;;10.20;8.20;;;;;;;17.85;86.91;99762.88;5030255;28;20484;-68
2022/08/05 09:45:57;;;;;;;12.95;6.18;;;;;;;17.82;86.25;99765.78;5028297;28;20056;-67
2022/08/05 09:48:26;;;;;;;9.18;5.40;;;;;;;17.83;85.23;99763.97;5029497;28;20075;-68
2022/08/05 09:50:54;;;;;;;9.45;5.43;;;;;;;17.81;85.62;99764.91;5029860;28;20053;-67
2022/08/05 09:53:23;;;;;;;11.02;6.20;;;;;;;17.84;85.96;99777.16;5029812;28;20656;-67
2022/08/05 09:55:55;;;;;;;8.93;7.03;;;;;;;17.86;86.92;99787.72;5029176;28;20424;-68
2022/08/05 09:58:22;;;;;;;8.70;6.45;;;;;;;17.81;86.30;99785.41;5029682;28;20056;-68
2022/08/05 10:00:57;;;;;;;10.00;6.72;;;;;;;17.75;85.43;99794.72;5021099;28;20065;-68
2022/08/05 10:03:24;;;;;;;12.13;8.07;;;;;;;17.76;86.75;99785.75;5032821;28;20132;-68
2022/08/05 10:06:02;;;;;;;10.18;7.20;;;;;;;17.84;89.12;99793.16;5029227;28;20258;-67
2022/08/05 10:08:30;;;;;;;10.52;9.32;;;;;;;17.95;86.09;99798.50;5028670;28;20755;-67
2022/08/05 10:10:57;;;;;;;17.85;11.65;;;;;;;18.01;86.16;99802.50;5028234;28;20045;-69
2022/08/05 10:13:29;;;;;;;11.85;9.40;;;;;;;18.06;87.71;99807.47;5031553;28;20059;-68
2022/08/05 10:15:57;;;;;;;12.75;8.75;;;;;;;18.13;87.05;99806.84;5048019;28;20071;-66
2022/08/05 10:18:25;;;;;;;11.32;6.28;;;;;;;18.04;86.50;99815.59;5049224;28;20051;-67
2022/08/05 10:20:54;;;;;;;8.45;6.50;;;;;;;18.08;86.24;99814.38;5046894;28;20120;-67
2022/08/05 10:23:22;;;;;;;11.80;7.78;;;;;;;18.21;87.64;99817.78;5029244;28;20065;-69
2022/08/05 10:25:51;;;;;;;11.60;6.72;;;;;;;18.36;87.13;99815.69;5028459;28;20053;-69
2022/08/05 10:28:18;;;;;;;10.65;7.22;;;;;;;18.36;85.73;99821.00;5028806;28;20489;-68
2022/08/05 10:30:45;;;;;;;8.85;7.95;;;;;;;18.39;86.73;99826.09;5029358;28;20054;-68
2022/08/05 10:33:12;;;;;;;9.65;6.75;;;;;;;18.48;86.28;99823.66;5028089;28;20057;-67
2022/08/05 10:35:39;;;;;;;11.43;6.70;;;;;;;18.55;84.81;99827.50;5028563;28;20049;-67
2022/08/05 10:38:09;;;;;;;12.35;6.95;;;;;;;18.62;85.12;99829.56;5029092;28;20071;-69
2022/08/05 10:40:42;;;;;;;9.52;6.40;;;;;;;18.93;84.21;99827.06;5028169;28;20077;-69
2022/08/05 10:43:17;;;;;;;10.63;6.60;;;;;;;19.49;81.63;99821.41;5028910;28;20048;-68
2022/08/05 10:45:54;;;;;;;;;;;;;;;19.62;78.64;99825.69;5026866;28;20049;-68
2022/08/05 10:48:33;;;;;;;13.80;7.97;;;;;;;19.57;77.74;99834.13;5029112;28;19928;-68
2022/08/05 10:51:02;;;;;;;10.60;6.82;;;;;;;20.53;72.11;99834.66;5029005;28;20108;-68
2022/08/05 10:53:41;;;;;;;11.73;7.88;;;;;;;21.42;71.22;99837.25;5029279;28;20140;-69
2022/08/05 10:56:09;;;;;;;13.43;8.50;;;;;;;22.35;68.77;99832.84;5029225;28;20049;-68
2022/08/05 10:58:49;;;;;;;8.25;6.20;;;;;;;22.79;62.79;99834.81;5032830;28;20486;-68
2022/08/05 11:01:16;;;;;;;8.75;6.63;;;;;;;22.61;64.30;99832.09;5032768;28;20048;-68
2022/08/05 11:04:05;;;;;;;10.77;7.03;;;;;;;22.16;65.21;99839.13;5016212;28;20051;-68
2022/08/05 11:06:32;;;;;;;8.35;6.68;;;;;;;21.88;65.89;99849.00;5007532;28;20056;-68
2022/08/05 11:09:18;;;;;;;7.82;6.32;;;;;;;21.63;66.59;99837.91;5013159;28;20042;-68
2022/08/05 11:11:46;;;;;;;11.57;7.97;;;;;;;21.40;67.34;99844.59;5012848;28;20070;-68
2022/08/05 11:14:23;;;;;;;9.18;6.85;;;;;;;21.27;67.62;99835.97;5011304;28;20060;-67
2022/08/05 11:17:23;;;;;;;10.27;6.60;;;;;;;21.37;67.44;99847.53;5022832;28;20049;-67
2022/08/05 11:19:52;;;;;;;9.65;7.38;;;;;;;21.37;67.08;99847.53;5012474;28;20046;-66
2022/08/05 11:22:43;;;;;;;10.00;6.80;;;;;;;21.60;66.02;99848.91;5012845;28;20092;-67
2022/08/05 11:25:32;;;;;;;9.20;7.60;;;;;;;21.43;66.98;99845.13;5002060;28;20057;-68
2022/08/05 11:28:32;;;;;;;10.20;6.97;;;;;;;21.31;66.00;99842.72;5012786;28;20054;-68
2022/08/05 11:31:29;;;;;;;19.30;7.88;;;;;;;21.26;61.88;99843.16;5012719;28;20045;-68
2022/08/05 11:34:01;;;;;;;11.27;6.13;;;;;;;21.46;63.93;99843.16;5012158;28;20527;-67